x

Huron Light, Oh (hhlo1) Weather Station

3:50am - Wed 18th Jan 2017 All times are CST. -6 hours from GMT.

  • Wind
    10mph, 16mph gusts
  • Air Temp 38°f
  • Sea Pressure 1014.9mb
  • Huron Light, Oh
  • Huron Light, Oh

More Historic Weather Station data

Upgrade to MSW Pro to gain access to the past 30 days of data for over 8000 Wavebouys and Weather Stations around the globe.

Join Pro

Comparision Forecast

View Surf forecast
   
Wed 01/18 3:50am 10 16 mph 1014.9mb 38f
3:40am 10 17 mph 1014.9mb 38f
3:30am 14 20 mph 1014.9mb 38f
3:20am 15 21 mph 1014.6mb 38f
3:10am 20 26 mph 1014.6mb 38f
3:00am 13 21 mph 1014.6mb 38f
2:50am 13 21 mph 1014.6mb 39f
2:40am 17 22 mph 1014.6mb 39f
2:30am 13 22 mph 1014.2mb 40f
2:20am 15 21 mph 1014.2mb 40f
2:10am 14 23 mph 1014.2mb 40f
2:00am 15 22 mph 1013.9mb 40f
1:50am 10 16 mph 1013.9mb 40f
1:40am 9 14 mph 1013.9mb 40f
1:30am 10 16 mph 1013.5mb 40f
1:20am 11 18 mph 1013.2mb 40f
1:10am 11 20 mph 1013.2mb 40f
1:00am 11 17 mph 1013.2mb 40f
12:50am 11 17 mph 1012.9mb 40f
12:40am 15 23 mph 1012.9mb 41f
12:30am 13 23 mph 1012.9mb 41f
12:20am 16 22 mph 1012.9mb 42f
12:10am 13 16 mph 1012.5mb 42f
12:00am 11 17 mph 1012.5mb 42f
Tue 01/17 11:50pm 13 18 mph 1012.5mb 42f
11:40pm 13 20 mph 1012.5mb 42f
11:30pm 15 21 mph 1012.5mb 43f
11:20pm 13 18 mph 1012.5mb 43f
11:10pm 11 18 mph 1012.5mb 43f
11:00pm 13 17 mph 1012.5mb 42f
10:50pm 13 16 mph 1012.5mb 43f
10:40pm 13 20 mph 1012.5mb 43f
10:30pm 17 21 mph 1012.5mb 43f
10:20pm 17 26 mph 1012.5mb 43f
10:10pm 17 24 mph 1012.5mb 43f
10:00pm 14 22 mph 1012.5mb 43f
9:50pm 13 18 mph 1012.5mb 44f
9:40pm 15 23 mph 1012.5mb 44f
9:30pm 17 23 mph 1012.2mb 44f
9:20pm 15 22 mph 1012.2mb 44f
9:10pm 16 25 mph 1012.2mb 44f
9:00pm 13 22 mph 1012.2mb 45f
8:50pm 20 25 mph 1011.9mb 45f
8:40pm 11 21 mph 1011.9mb 45f
8:30pm 14 24 mph 1011.9mb 45f
8:20pm 18 24 mph 1011.9mb 45f
8:10pm 16 20 mph 1011.9mb 46f
8:00pm 17 23 mph 1011.5mb 46f
7:00pm 14 31 mph 1011.2mb 47f
6:30pm 16 21 mph 1011.2mb 47f
6:20pm 18 24 mph 1011.2mb 47f
6:10pm 14 22 mph 1011.2mb 48f
6:00pm 17 23 mph 1011.2mb 48f
5:50pm 14 22 mph 1010.8mb 48f
5:40pm 18 29 mph 1010.8mb 49f
5:30pm 20 26 mph 1010.5mb 49f
5:20pm 18 28 mph 1010.2mb 50f
5:10pm 16 24 mph 1010.2mb 51f
5:00pm 20 29 mph 1009.8mb 51f
4:50pm 20 29 mph 1009.8mb 51f
4:40pm 16 26 mph 1009.8mb 51f
4:30pm 15 22 mph 1009.5mb 52f
4:20pm 18 22 mph 1009.5mb 52f
4:10pm 13 18 mph 1009.5mb 52f
4:00pm 16 23 mph 1009.5mb 53f
3:50pm 16 25 mph 1009.1mb 53f
3:40pm 13 22 mph 1009.1mb 53f
3:30pm 14 22 mph 1009.1mb 53f
3:20pm 14 24 mph 1008.8mb 53f
3:10pm 15 24 mph 1008.8mb 53f
3:00pm 16 23 mph 1009.1mb 53f
2:50pm 10 18 mph 1008.8mb 53f
2:40pm 13 17 mph 1008.8mb 53f
2:30pm 10 16 mph 1008.8mb 53f
2:20pm 13 17 mph 1008.5mb 53f
2:10pm 10 21 mph 1008.5mb 53f
2:00pm 14 22 mph 1008.5mb 53f
1:50pm 16 28 mph 1008.5mb 54f
1:40pm 20 26 mph 1008.1mb 54f
1:30pm 17 25 mph 1008.1mb 55f
1:20pm 18 26 mph 1007.8mb 55f
1:10pm 17 24 mph 1008.1mb 55f
1:00pm 14 23 mph 1008.1mb 55f
12:50pm 17 24 mph 1007.8mb 56f
12:40pm 16 29 mph 1007.8mb 57f
12:30pm 15 29 mph 1007.8mb 56f
12:20pm 17 25 mph 1007.8mb 56f
12:10pm 17 24 mph 1007.8mb 56f
12:00pm 16 25 mph 1007.8mb 57f
11:50am 18 28 mph 1007.8mb 58f
11:40am 17 26 mph 1007.8mb 58f
11:30am 13 18 mph 1007.8mb 58f
11:20am 14 22 mph 1007.8mb 58f
11:10am 16 22 mph 1007.8mb 58f
11:00am 15 22 mph 1007.8mb 58f
10:50am 17 23 mph 1007.8mb 58f
10:40am 14 21 mph 1007.8mb 58f
10:30am 14 20 mph 1008.1mb 58f
10:20am 10 17 mph 1007.8mb 57f
10:10am 15 18 mph 1008.1mb 56f
10:00am 11 20 mph 1008.1mb 56f
9:50am 17 23 mph 1008.1mb 57f
9:40am 13 24 mph 1008.1mb 57f
9:30am 14 18 mph 1007.8mb 57f
9:20am 13 18 mph 1007.8mb 56f
9:10am 10 16 mph 1007.8mb 56f
9:00am 11 15 mph 1007.8mb 55f
8:50am 9 15 mph 1007.8mb 54f
8:40am 10 15 mph 1007.8mb 54f
8:30am 10 16 mph 1008.1mb 54f
8:20am 11 16 mph 1008.1mb 54f
8:10am 11 16 mph 1008.5mb 54f
8:00am 9 14 mph 1008.5mb 53f
7:30am 6 10 mph 1008.5mb 52f
7:20am 7 11 mph 1008.5mb 52f
7:10am 7 11 mph 1008.5mb 52f
7:00am 9 14 mph 1008.8mb 52f
6:50am 9 16 mph 1009.1mb 52f
6:40am 10 18 mph 1009.1mb 52f
6:30am 13 21 mph 1009.1mb 51f
6:20am 13 22 mph 1008.8mb 51f
6:10am 13 18 mph 1009.1mb 51f
6:00am 13 17 mph 1009.5mb 51f
5:50am 11 15 mph 1009.8mb 51f
5:40am 10 15 mph 1009.8mb 51f
5:30am 11 17 mph 1009.8mb 51f
5:20am 11 17 mph 1010.2mb 51f
5:10am 11 18 mph 1010.2mb 51f
5:00am 11 20 mph 1010.2mb 51f
4:50am 11 17 mph 1010.2mb 51f
4:40am 10 14 mph 1010.2mb 51f
4:30am 10 18 mph 1010.2mb 50f
4:20am 11 16 mph 1010.5mb 50f
4:10am 10 14 mph 1010.8mb 49f
4:00am 8 9 mph 1010.8mb 48f
3:50am 6 9 mph 1011.2mb 48f
3:40am 7 10 mph 1011.5mb 48f
3:30am 8 10 mph 1011.9mb 47f
3:20am 9 13 mph 1011.9mb 47f
3:10am 8 14 mph 1012.2mb 46f
3:00am 9 11 mph 1012.5mb 44f
2:50am 6 8 mph 1013.2mb 39f
2:40am 5 6 mph 1013.2mb 37f
2:30am 2 10 mph 1013.5mb 37f
2:20am 6 7 mph 1013.5mb 36f
2:10am 3 6 mph 1014.2mb 36f
2:00am 6
mph
1014.6mb 36f
1:50am 3
mph
1014.6mb 35f
1:40am 3 6 mph 1014.6mb 35f
1:30am 3 5 mph 1014.6mb 35f
1:20am 3 9 mph 1014.6mb 35f
1:10am 9 10 mph 1014.6mb 35f
1:00am 8 9 mph 1014.9mb 35f
12:50am 9 13 mph 1014.9mb 35f
12:40am 13
mph
1015.2mb 35f
12:30am 11 13 mph 1015.6mb 35f
12:20am 10
mph
1015.6mb 35f
12:10am 10
mph
1015.9mb 35f
12:00am 7 8 mph 1015.9mb 34f
Mon 01/16 11:50pm 6 9 mph 1016.6mb 35f
11:40pm 9 11 mph 1016.6mb 36f
11:30pm 9 10 mph 1016.6mb 35f
11:20pm 10
mph
1016.6mb 35f
11:10pm 10
mph
1016.9mb 36f
11:00pm 10
mph
1016.9mb 36f
10:50pm 9
mph
1017.3mb 35f
10:40pm 3 7 mph 1017.6mb 35f
10:30pm 2 7 mph 1017.6mb 35f
10:20pm 3 5 mph 1017.6mb 34f
10:10pm 3 7 mph 1017.6mb 35f
10:00pm 7 9 mph 1017.9mb 35f
9:50pm 9 10 mph 1017.9mb 37f
9:40pm 9
mph
1017.9mb 38f
9:30pm 7 8 mph 1018.3mb 38f
9:20pm 8
mph
1018.6mb 38f
9:10pm 6 7 mph 1018.6mb 37f
9:00pm 6 7 mph 1019mb 38f
8:50pm 6
mph
1019.3mb 38f
8:40pm 6
mph
1019.3mb 37f
8:30pm 3 5 mph 1019.6mb 36f
8:20pm 5 7 mph 1019.6mb 37f
8:10pm 6 7 mph 1019.6mb 36f
8:00pm 8 9 mph 1019.6mb 38f
7:50pm 7
mph
1019.6mb 38f
7:40pm 5 6 mph 1020mb 38f
7:30pm 3 6 mph 1020.3mb 38f
7:20pm 3 5 mph 1020.7mb 38f
7:10pm 2 7 mph 1020.7mb 39f
7:00pm 5 7 mph 1020.7mb 38f
6:50pm 6 9 mph 1020.3mb 38f
6:40pm 5 7 mph 1020.3mb 38f
6:30pm 6 9 mph 1020.3mb 38f
6:20pm 6 7 mph 1020.7mb 37f
6:10pm 5 8 mph 1021mb 37f
6:00pm 6 8 mph 1021mb 36f
5:50pm 7 8 mph 1021mb 35f
5:40pm 6 7 mph 1021mb 34f
5:30pm 5
mph
1021.3mb 35f
5:20pm 2 3 mph 1021.7mb 35f
5:10pm 3 5 mph 1021.7mb 34f
5:00pm 5 9 mph 1021.7mb 34f
4:50pm 8 9 mph 1021.3mb 34f
4:40pm 1 3 mph 1022mb 34f
4:30pm  -  6 mph 1022mb 35f
4:20pm 6 7 mph 1021.7mb 35f
4:10pm 3 5 mph 1022mb 34f
4:00pm 2 7 mph 1022mb 34f
3:50pm 7
mph
1021.7mb 36f
3:40pm 6 7 mph 1022mb 35f
3:30pm 5 6 mph 1021.7mb 35f
3:20pm 2 5 mph 1022mb 35f
3:10pm 5 7 mph 1022mb 34f
3:00pm 8 9 mph 1021.7mb 34f
2:50pm 9
mph
1021.7mb 34f
2:40pm 9
mph
1021.7mb 33f
2:30pm 9 10 mph 1022mb 33f
2:20pm 7 8 mph 1022.4mb 32f
2:10pm 5 7 mph 1022.7mb 32f
2:00pm 6 7 mph 1022.7mb 32f
1:50pm 6
mph
1022.7mb 32f
1:40pm 5 7 mph 1023mb 32f
1:30pm 6 7 mph 1023mb 32f
1:20pm 7
mph
1023.4mb 32f
1:10pm 6 7 mph 1023.4mb 32f
1:00pm 6 7 mph 1023.4mb 32f
12:50pm 6 7 mph 1023.7mb 32f
12:40pm 6 7 mph 1023.7mb 32f
12:30pm 5 6 mph 1023.7mb 32f
12:20pm 5 6 mph 1023.7mb 33f
12:10pm 5 6 mph 1024mb 33f
12:00pm 1 2 mph 1024.4mb 33f
11:50am 1 7 mph 1024.4mb 33f
11:40am 6 8 mph 1024.4mb 32f
11:30am 7 8 mph 1024mb 32f
11:20am 7
mph
1024.4mb 32f
11:10am 6
mph
1024.4mb 32f
11:00am 5 7 mph 1024.7mb 32f
10:50am 6 7 mph 1024.7mb 32f
10:40am 3 8 mph 1025.1mb 32f
10:30am 7 9 mph 1025.1mb 32f
10:20am 7
mph
1025.7mb 32f
10:10am 5 7 mph 1025.7mb 32f
10:00am 7 8 mph 1025.7mb 32f
9:50am 7 8 mph 1026.1mb 32f
9:40am 7
mph
1026.1mb 32f
9:30am 5 6 mph 1026.1mb 32f
9:20am 6 7 mph 1026.1mb 32f
9:10am 3 5 mph 1026.1mb 32f
9:00am 6
mph
1025.7mb 31f
8:50am 5
mph
1025.7mb 31f
8:40am 5
mph
1025.7mb 31f
8:30am 3
mph
1025.7mb 31f
8:20am 1 2 mph 1026.1mb 31f
8:10am 1 2 mph 1025.7mb 31f
8:00am  -  2 mph 1025.7mb 30f
7:50am 1 2 mph 1026.1mb 30f
7:40am 2 3 mph 1025.7mb 30f
7:30am 2 5 mph 1026.1mb 30f
7:20am 2 3 mph 1026.1mb 30f
7:10am 2 3 mph 1025.7mb 30f
7:00am 3
mph
1025.7mb 30f
6:50am 3 5 mph 1025.4mb 30f
6:40am 3 6 mph 1025.4mb 30f
6:30am 5 6 mph 1025.1mb 29f
6:20am 3 5 mph 1025.4mb 29f
6:10am  -  2 mph 1025.4mb 29f
6:00am 2 5 mph 1025.7mb 28f
5:50am  -  1 mph 1025.7mb 28f
5:40am  -  2 mph 1025.7mb 28f
5:30am 1
mph
1025.7mb 28f
5:20am  -  mph 1025.7mb 28f
5:10am  -  2 mph 1025.7mb 28f
5:00am 2 3 mph 1025.7mb 28f
4:50am  -  1 mph 1025.7mb 27f
4:40am  -  2 mph 1025.7mb 27f
4:30am  -  mph 1025.7mb 26f
4:20am  -  1 mph 1025.7mb 27f
4:10am  -  2 mph 1026.1mb 27f
4:00am  -  1 mph 1026.1mb 27f
3:50am 2 3 mph 1026.1mb 27f
3:40am 2
mph
1026.1mb 27f
3:30am  -  2 mph 1026.1mb 27f
3:20am 2
mph
1026.1mb 27f
3:10am 2 3 mph 1026.1mb 28f
3:00am  -  1 mph 1026.1mb 27f
2:50am 1
mph
1026.1mb 27f
2:40am 1 2 mph 1026.4mb 27f
2:30am  -  1 mph 1026.8mb 27f
2:20am 1
mph
1026.4mb 27f
2:10am  -  mph 1026.8mb 27f
2:00am  -  mph 1026.4mb 26f
1:50am  -  mph 1026.4mb 26f
1:40am  -  mph 1026.4mb 26f
1:30am  -  mph 1026.4mb 26f
1:20am  -  mph 1026.4mb 26f
1:10am  -  1 mph 1026.1mb 26f
1:00am  -  1 mph 1026.1mb 26f
12:50am  -  mph 1026.1mb 26f
12:40am  -  1 mph 1026.1mb 26f
12:30am  -  1 mph 1026.1mb 26f
12:20am  -  mph 1026.1mb 27f
12:10am  -  mph 1026.1mb 27f
12:00am  -  2 mph 1026.4mb 27f
Sun 01/15 11:50pm 1 2 mph 1026.4mb 28f
11:40pm 1 2 mph 1026.4mb 28f
11:30pm 1 2 mph 1026.4mb 27f
11:20pm  -  1 mph 1026.4mb 27f
11:10pm  -  mph 1026.4mb 28f
11:00pm  -  mph 1026.4mb 28f
10:50pm  -  mph 1026.4mb 28f
10:40pm  -  1 mph 1026.4mb 28f
10:30pm  -  3 mph 1026.4mb 28f
10:20pm 2 3 mph 1026.4mb 28f
10:10pm 1 3 mph 1026.8mb 28f
10:00pm 2 3 mph 1026.8mb 28f
9:50pm 1 2 mph 1027.1mb 28f
9:40pm 2 3 mph 1027.1mb 28f
9:30pm  -  2 mph 1027.1mb 28f
9:20pm 1 2 mph 1027.1mb 28f
9:10pm 1 2 mph 1027.1mb 28f
9:00pm  -  2 mph 1027.1mb 28f
8:50pm 2 3 mph 1027.1mb 29f
8:40pm  -  2 mph 1027.1mb 28f
8:30pm 2
mph
1027.1mb 28f
8:20pm 2 3 mph 1027.1mb 28f
8:10pm 2
mph
1027.1mb 28f
8:00pm 2
mph
1027.1mb 28f
7:50pm 1 2 mph 1027.1mb 28f
7:40pm 1 2 mph 1027.1mb 28f
7:30pm 1 2 mph 1027.4mb 28f
7:20pm 2 3 mph 1027.1mb 29f
7:10pm 2
mph
1027.1mb 29f
7:00pm 2
mph
1027.1mb 29f
6:50pm 2
mph
1027.1mb 29f
6:40pm 2 5 mph 1027.1mb 30f
6:30pm 5
mph
1026.8mb 30f
6:20pm 5 6 mph 1026.8mb 30f
6:10pm 5
mph
1026.8mb 30f
6:00pm 5
mph
1027.1mb 30f
5:50pm 3 5 mph 1027.1mb 30f
5:40pm 3
mph
1027.1mb 30f
5:30pm 2 3 mph 1027.1mb 30f
5:20pm 2 3 mph 1027.1mb 29f
5:10pm 2 3 mph 1027.1mb 29f
5:00pm 2 3 mph 1027.1mb 29f
4:50pm 2
mph
1027.1mb 29f
4:40pm 2
mph
1027.1mb 29f
4:30pm 2
mph
1027.1mb 29f
4:20pm 2 3 mph 1026.8mb 29f
4:10pm 2
mph
1027.1mb 29f
4:00pm 2
mph
1027.1mb 30f
3:50pm 2
mph
1027.4mb 30f
3:40pm 2
mph
1027.1mb 30f
3:30pm 1 2 mph 1027.1mb 30f
3:20pm 1 2 mph 1027.1mb 30f
3:10pm 1 2 mph 1027.1mb 30f
3:00pm  -  1 mph 1027.4mb 30f
2:50pm  -  2 mph 1027.4mb 30f
2:40pm 2
mph
1027.1mb 30f
2:30pm  -  3 mph 1027.1mb 30f
2:20pm 2 3 mph 1027.4mb 30f
2:10pm 2 3 mph 1027.4mb 30f
2:00pm 1 2 mph 1027.4mb 30f
1:50pm 2 3 mph 1027.4mb 30f
1:40pm 3 5 mph 1027.4mb 29f
1:30pm 3 5 mph 1027.4mb 29f
1:20pm 3 5 mph 1027.4mb 29f
1:10pm 3 6 mph 1027.4mb 29f
1:00pm 5 6 mph 1027.1mb 29f
12:50pm 5 6 mph 1027.4mb 29f
12:40pm 5 6 mph 1027.4mb 29f
12:30pm 3 5 mph 1027.4mb 29f
12:20pm 3 5 mph 1027.8mb 29f
12:10pm 3 5 mph 1027.4mb 29f
12:00pm  -  3 mph 1028.1mb 29f
11:50am 2 3 mph 1028.4mb 29f
11:40am  -  1 mph 1028.4mb 30f
11:30am  -  2 mph 1028.8mb 29f
11:20am 2
mph
1028.4mb 29f
11:10am  -  1 mph 1028.8mb 29f
11:00am  -  2 mph 1028.8mb 29f
10:50am  -  2 mph 1029.1mb 29f
10:40am  -  2 mph 1029.1mb 28f
10:30am  -  1 mph 1029.5mb 29f
10:20am  -  mph 1029.5mb 29f
10:10am  -  mph 1029.5mb 29f
10:00am  -  mph 1029.5mb 29f
9:50am  -  1 mph 1029.8mb 29f
9:40am  -  2 mph 1029.8mb 28f
9:30am 2 5 mph 1029.8mb 28f
9:20am 5 6 mph 1029.8mb 27f
9:10am 6
mph
1029.8mb 27f
9:00am 6
mph
1029.8mb 27f
8:50am 3 5 mph 1029.5mb 27f
8:40am 3 6 mph 1029.8mb 27f
8:30am 5 6 mph 1029.5mb 27f
8:20am 5 6 mph 1029.5mb 26f
8:10am 6
mph
1029.5mb 26f
8:00am 5 6 mph 1029.5mb 25f
7:50am 5 6 mph 1029.5mb 25f
7:40am 5 6 mph 1029.5mb 24f
7:30am 6 7 mph 1029.5mb 24f
7:20am 3 6 mph 1029.5mb 23f
7:10am 5 6 mph 1029.1mb 23f
7:00am 5 6 mph 1029.1mb 22f
6:50am 5 6 mph 1029.1mb 23f
6:40am 5 6 mph 1029.1mb 23f
6:30am 5 6 mph 1029.1mb 23f
6:20am 5 6 mph 1029.1mb 23f
6:10am 6
mph
1029.1mb 23f
6:00am 5
mph
1028.8mb 24f
5:50am 3 5 mph 1028.8mb 24f
5:40am 5
mph
1028.8mb 24f
5:30am 3 6 mph 1028.8mb 24f
5:20am 3 5 mph 1028.4mb 24f
5:10am 5
mph
1028.4mb 24f
5:00am 3 5 mph 1028.4mb 24f
4:50am 3 5 mph 1028.4mb 24f
4:40am 3 5 mph 1028.8mb 24f
4:30am 5
mph
1028.8mb 24f
4:20am 5 6 mph 1028.4mb 24f
4:10am 5 6 mph 1028.4mb 24f
4:00am 3 5 mph 1028.4mb 24f
3:50am 5 6 mph 1028.4mb 24f
3:40am 5 6 mph 1028.4mb 25f
3:30am 5 6 mph 1028.8mb 25f
3:20am 5 6 mph 1028.4mb 25f
3:10am 5 7 mph 1028.8mb 25f
3:00am 5 6 mph 1028.4mb 25f
2:50am 3 5 mph 1028.8mb 25f
2:40am 5 6 mph 1028.8mb 26f
2:30am 3 6 mph 1028.8mb 26f
2:20am 5 6 mph 1028.8mb 26f
2:10am 5
mph
1028.8mb 26f
2:00am 3 5 mph 1028.8mb 26f
1:50am 3 5 mph 1028.8mb 26f
1:40am 3 5 mph 1028.4mb 26f
1:30am 5 6 mph 1028.4mb 26f
1:20am 3 5 mph 1028.4mb 26f
1:10am 3 5 mph 1028.1mb 26f
1:00am 3 5 mph 1028.4mb 27f
12:50am 5 6 mph 1028.1mb 27f
12:40am 3 5 mph 1028.1mb 27f
12:30am 5 6 mph 1028.1mb 27f
12:20am 5 6 mph 1028.1mb 27f
12:10am 3 5 mph 1028.1mb 27f
12:00am 3 6 mph 1028.1mb 27f
Sat 01/14 11:50pm 3 6 mph 1028.1mb 27f
11:40pm 3 6 mph 1028.1mb 27f
11:30pm 5
mph
1028.1mb 27f
11:20pm 3 5 mph 1028.1mb 27f
11:10pm 3 5 mph 1028.1mb 27f
11:00pm 3 5 mph 1028.1mb 27f
10:50pm 3 5 mph 1028.1mb 28f
10:40pm 3 5 mph 1028.1mb 28f
10:30pm 3 6 mph 1028.4mb 28f
10:20pm 3 6 mph 1028.4mb 28f
10:10pm 5 6 mph 1028.4mb 28f
10:00pm 5 6 mph 1028.4mb 28f
9:50pm 5 6 mph 1028.4mb 28f
9:40pm 3 5 mph 1028.4mb 28f
9:30pm 3 5 mph 1028.4mb 28f
9:20pm 3 6 mph 1028.4mb 29f
9:10pm 3 5 mph 1028.4mb 29f
9:00pm 3 6 mph 1028.4mb 29f
8:50pm 3 5 mph 1028.1mb 29f
8:40pm 3 5 mph 1028.1mb 29f
8:30pm 5
mph
1028.1mb 29f
8:20pm 3 6 mph 1028.1mb 29f
8:10pm 2 5 mph 1028.1mb 29f
8:00pm 3 5 mph 1028.1mb 30f
7:50pm 2 3 mph 1027.8mb 30f
7:40pm 3
mph
1027.8mb 30f
7:30pm 2 3 mph 1027.4mb 30f
7:20pm 3 5 mph 1027.8mb 30f
7:10pm 2 5 mph 1027.4mb 30f
7:00pm 3 5 mph 1027.4mb 30f
6:50pm 3 5 mph 1027.4mb 30f
6:40pm 5 6 mph 1027.8mb 30f
6:30pm 3 5 mph 1027.8mb 30f
6:20pm 3 6 mph 1027.4mb 30f
6:10pm 3 6 mph 1027.4mb 30f
6:00pm 5 7 mph 1027.8mb 30f
5:50pm 3 7 mph 1027.8mb 30f
5:40pm 6 7 mph 1027.4mb 30f
5:30pm 5 7 mph 1027.8mb 30f
5:20pm 5 7 mph 1027.4mb 30f
5:10pm 5 6 mph 1027.4mb 30f
5:00pm 3 5 mph 1027.1mb 30f
4:50pm 3 6 mph 1027.1mb 30f
4:40pm 5 6 mph 1027.1mb 30f
4:30pm 3 5 mph 1027.1mb 30f
4:20pm 2 3 mph 1027.1mb 30f
4:10pm 1 2 mph 1027.1mb 30f
4:00pm  -  3 mph 1027.1mb 30f
3:50pm 2 5 mph 1027.1mb 30f
3:40pm 3
mph
1027.1mb 30f
3:30pm 1 3 mph 1027.1mb 30f
3:20pm 2 3 mph 1027.1mb 30f
3:10pm 2 5 mph 1027.1mb 30f
3:00pm 3 6 mph 1027.1mb 30f
2:50pm 3 5 mph 1027.4mb 30f
2:40pm 2 3 mph 1027.1mb 30f
2:30pm 2 5 mph 1027.4mb 30f
2:20pm 3 5 mph 1027.4mb 30f
2:10pm 3 8 mph 1027.4mb 30f
2:00pm 6 7 mph 1027.4mb 30f
1:50pm 2 3 mph 1027.1mb 30f
1:40pm 3 5 mph 1027.1mb 29f
1:30pm 5 6 mph 1027.1mb 29f
1:20pm 5
mph
1027.1mb 29f
1:10pm 3 6 mph 1027.1mb 29f
1:00pm 3 5 mph 1027.1mb 29f
12:50pm 2 5 mph 1027.1mb 29f
12:40pm 5 6 mph 1027.4mb 29f
12:30pm 3 5 mph 1027.8mb 29f
12:20pm 3 6 mph 1027.8mb 29f
12:10pm 5 6 mph 1028.1mb 29f
12:00pm 3 5 mph 1028.4mb 29f
11:50am 2 3 mph 1028.4mb 29f
11:40am 2 3 mph 1028.4mb 29f
11:30am 2 3 mph 1028.8mb 29f
11:20am 1 2 mph 1028.8mb 29f
11:10am  -  2 mph 1029.1mb 30f
11:00am  -  3 mph 1029.1mb 30f
10:50am 2 3 mph 1029.1mb 29f
10:40am 2 3 mph 1029.5mb 29f